createdAt,value
2019-03-20T00:00:24.170Z,77.23
2019-03-20T00:02:50.744Z,113.47
2019-03-20T00:05:17.573Z,131.60
2019-03-20T00:08:03.979Z,129.00
2019-03-20T00:10:30.826Z,115.07
2019-03-20T00:12:57.490Z,92.13
2019-03-20T00:15:24.175Z,91.87
2019-03-20T00:17:50.810Z,92.83
2019-03-20T00:20:17.420Z,105.27
2019-03-20T00:22:45.066Z,85.13
2019-03-20T00:25:12.099Z,61.83
2019-03-20T00:27:39.249Z,57.30
2019-03-20T00:30:09.798Z,52.13
2019-03-20T00:32:36.879Z,47.37
2019-03-20T00:35:05.357Z,48.17
2019-03-20T00:37:33.148Z,38.87
2019-03-20T00:39:59.800Z,50.20
2019-03-20T00:42:26.206Z,48.33
2019-03-20T00:44:52.723Z,49.83
2019-03-20T00:47:19.395Z,54.87
2019-03-20T00:49:45.920Z,50.77
2019-03-20T00:52:12.447Z,53.50
2019-03-20T00:54:38.896Z,48.73
2019-03-20T00:57:05.506Z,44.93
2019-03-20T00:59:31.994Z,48.10
2019-03-20T01:01:58.582Z,56.27
2019-03-20T01:04:25.257Z,62.07
2019-03-20T01:06:51.931Z,48.43
2019-03-20T01:09:19.040Z,54.27
2019-03-20T01:11:45.565Z,53.53
2019-03-20T01:14:12.213Z,58.63
2019-03-20T01:16:38.870Z,65.53
2019-03-20T01:19:05.601Z,101.40
2019-03-20T01:21:32.139Z,117.47
2019-03-20T01:23:58.909Z,97.00
2019-03-20T01:26:26.163Z,92.63
2019-03-20T01:28:52.714Z,134.43
2019-03-20T01:31:19.290Z,111.37
2019-03-20T01:33:47.182Z,108.67
2019-03-20T01:36:15.670Z,59.27
2019-03-20T01:38:42.116Z,90.60
2019-03-20T01:41:08.656Z,58.87
2019-03-20T01:43:35.138Z,55.30
2019-03-20T01:46:03.288Z,59.80
2019-03-20T01:48:30.044Z,78.90
2019-03-20T01:51:00.282Z,70.27
2019-03-20T01:53:26.779Z,103.90
2019-03-20T01:55:53.387Z,82.73
2019-03-20T01:58:19.867Z,86.00
2019-03-20T02:00:48.241Z,84.30
2019-03-20T02:03:15.095Z,87.30
2019-03-20T02:05:41.554Z,80.17
2019-03-20T02:08:08.178Z,73.33
2019-03-20T02:10:35.290Z,72.17
2019-03-20T02:13:01.731Z,75.93
2019-03-20T02:15:37.986Z,101.53
2019-03-20T02:17:56.609Z,74.63
2019-03-20T02:20:24.234Z,59.60
2019-03-20T02:22:50.904Z,52.43
2019-03-20T02:25:17.477Z,41.80
2019-03-20T02:27:44.832Z,44.53
2019-03-20T02:30:16.578Z,46.47
2019-03-20T02:32:43.417Z,43.13
2019-03-20T02:35:10.262Z,45.60
2019-03-20T02:37:36.747Z,39.47
2019-03-20T02:40:06.051Z,42.40
2019-03-20T02:42:32.784Z,46.23
2019-03-20T02:45:01.036Z,43.27
2019-03-20T02:47:27.440Z,38.33
2019-03-20T02:49:54.491Z,49.40
2019-03-20T02:52:21.039Z,41.33
2019-03-20T02:54:47.522Z,38.63
2019-03-20T02:57:17.232Z,39.57
2019-03-20T02:59:42.589Z,44.53
2019-03-20T03:02:09.758Z,41.03
2019-03-20T03:04:36.187Z,47.27
2019-03-20T03:07:03.116Z,44.13
2019-03-20T03:09:29.684Z,50.77
2019-03-20T03:11:56.367Z,43.13
2019-03-20T03:14:22.882Z,45.00
2019-03-20T03:16:49.554Z,47.00
2019-03-20T03:19:17.826Z,52.90
2019-03-20T03:21:44.439Z,53.23
2019-03-20T03:24:11.125Z,44.37
2019-03-20T03:26:37.671Z,50.37
2019-03-20T03:29:04.711Z,50.27
2019-03-20T03:31:31.421Z,53.17
2019-03-20T03:33:58.367Z,48.57
2019-03-20T03:36:25.187Z,51.00
2019-03-20T03:38:51.633Z,62.00
2019-03-20T03:41:18.447Z,48.77
2019-03-20T03:43:45.203Z,45.40
2019-03-20T03:46:11.733Z,42.50
2019-03-20T03:48:38.349Z,49.80
2019-03-20T03:51:05.347Z,57.40
2019-03-20T03:53:31.987Z,61.73
2019-03-20T03:55:58.400Z,108.20
2019-03-20T03:58:25.000Z,121.50
2019-03-20T04:00:51.495Z,110.70
2019-03-20T04:03:18.003Z,104.80
2019-03-20T04:05:45.456Z,93.23
2019-03-20T04:08:12.422Z,67.30
2019-03-20T04:10:40.117Z,73.37
2019-03-20T04:13:06.890Z,72.00
2019-03-20T04:15:36.281Z,79.20
2019-03-20T04:18:01.747Z,76.57
2019-03-20T04:20:28.386Z,71.03
2019-03-20T04:22:54.896Z,72.27
2019-03-20T04:25:21.557Z,66.67
2019-03-20T04:27:48.743Z,76.37
2019-03-20T04:30:18.768Z,64.83
2019-03-20T04:32:45.405Z,69.83
2019-03-20T04:35:13.791Z,63.60
2019-03-20T04:37:40.473Z,60.87
2019-03-20T04:40:17.691Z,65.63
2019-03-20T04:42:44.304Z,66.77
2019-03-20T04:45:12.712Z,83.03
2019-03-20T04:47:39.879Z,85.43
2019-03-20T04:50:12.767Z,82.27
2019-03-20T04:52:39.267Z,82.03
2019-03-20T04:55:07.405Z,83.87
2019-03-20T04:57:34.015Z,81.83
2019-03-20T05:00:00.476Z,90.07
2019-03-20T05:02:26.892Z,106.90
2019-03-20T05:04:53.304Z,93.57
2019-03-20T05:07:19.767Z,91.17
2019-03-20T05:09:46.311Z,89.83
2019-03-20T05:12:12.884Z,103.57
2019-03-20T05:14:39.313Z,103.20
2019-03-20T05:17:05.900Z,103.17
2019-03-20T05:19:32.566Z,129.13
2019-03-20T05:21:59.187Z,129.90
2019-03-20T05:24:25.610Z,140.63
2019-03-20T05:26:52.317Z,143.53
2019-03-20T05:29:19.755Z,138.10
2019-03-20T05:31:46.645Z,79.93
2019-03-20T05:34:13.197Z,66.03
2019-03-20T05:36:41.833Z,65.27
2019-03-20T05:39:08.186Z,61.90
2019-03-20T05:41:34.806Z,57.70
2019-03-20T05:44:02.185Z,52.03
2019-03-20T05:46:28.785Z,49.40
2019-03-20T05:48:56.398Z,44.87
2019-03-20T05:51:23.394Z,49.53
2019-03-20T05:53:50.021Z,43.83
2019-03-20T05:56:16.674Z,50.00
2019-03-20T05:58:43.231Z,51.47
2019-03-20T06:01:09.744Z,75.20
2019-03-20T06:03:36.174Z,75.77
2019-03-20T06:06:02.866Z,73.67
2019-03-20T06:08:31.251Z,76.33
2019-03-20T06:10:57.796Z,77.83
2019-03-20T06:13:24.355Z,59.30
2019-03-20T06:15:50.958Z,52.53
2019-03-20T06:18:17.375Z,44.57
2019-03-20T06:20:43.903Z,57.10
2019-03-20T06:23:11.293Z,52.97
2019-03-20T06:25:38.619Z,67.33
2019-03-20T06:28:05.207Z,64.83
2019-03-20T06:30:32.903Z,74.93
2019-03-20T06:33:00.020Z,68.93
2019-03-20T06:35:26.840Z,62.90
2019-03-20T06:37:53.837Z,66.47
2019-03-20T06:40:20.362Z,58.53
2019-03-20T06:42:47.144Z,61.13
2019-03-20T06:45:15.550Z,54.07
2019-03-20T06:47:43.106Z,44.50
2019-03-20T06:50:13.163Z,43.77
2019-03-20T06:52:39.748Z,51.17
2019-03-20T06:55:08.122Z,49.87
2019-03-20T06:57:34.769Z,40.60
2019-03-20T07:00:27.629Z,38.03
2019-03-20T07:02:55.392Z,37.00
2019-03-20T07:05:40.778Z,37.17
2019-03-20T07:08:08.573Z,33.83
2019-03-20T07:10:44.625Z,31.20
2019-03-20T07:13:11.491Z,27.43
2019-03-20T07:15:38.207Z,34.47
2019-03-20T07:18:04.872Z,28.03
2019-03-20T07:20:31.498Z,41.63
2019-03-20T07:22:58.066Z,34.53
2019-03-20T07:25:24.619Z,27.27
2019-03-20T07:27:51.047Z,35.57
2019-03-20T07:30:18.245Z,42.93
2019-03-20T07:32:45.074Z,32.23
2019-03-20T07:35:11.882Z,31.87
2019-03-20T07:37:38.590Z,37.80
2019-03-20T07:40:08.004Z,29.20
2019-03-20T07:42:34.470Z,26.33
2019-03-20T07:45:01.115Z,30.00
2019-03-20T07:47:27.651Z,32.93
2019-03-20T07:49:54.211Z,30.00
2019-03-20T07:52:20.651Z,28.77
2019-03-20T07:54:47.260Z,31.47
2019-03-20T07:57:14.287Z,32.70
2019-03-20T07:59:42.849Z,32.43
2019-03-20T08:02:09.240Z,33.63
2019-03-20T08:04:35.681Z,33.00
2019-03-20T08:07:02.212Z,31.77
2019-03-20T08:09:28.692Z,38.33
2019-03-20T08:11:55.349Z,39.23
2019-03-20T08:14:22.129Z,26.67
2019-03-20T08:16:48.620Z,26.93
2019-03-20T08:19:15.250Z,21.43
2019-03-20T08:21:43.757Z,25.83
2019-03-20T08:24:10.174Z,21.57
2019-03-20T08:26:37.087Z,22.57
2019-03-20T08:29:03.613Z,20.70
2019-03-20T08:31:30.296Z,21.43
2019-03-20T08:33:56.718Z,13.93
2019-03-20T08:36:23.818Z,9.13
2019-03-20T08:38:50.475Z,11.13
2019-03-20T08:41:17.112Z,10.50
2019-03-20T08:43:45.609Z,9.70
2019-03-20T08:46:12.467Z,11.63
2019-03-20T08:48:39.155Z,11.13
2019-03-20T08:51:06.025Z,9.83
2019-03-20T08:53:32.557Z,7.17
2019-03-20T08:55:59.084Z,9.60
2019-03-20T08:58:25.596Z,7.80
2019-03-20T09:00:52.222Z,7.53
2019-03-20T09:03:18.628Z,10.27
2019-03-20T09:05:47.270Z,6.53
2019-03-20T09:08:13.624Z,15.83
2019-03-20T09:10:41.295Z,8.70
2019-03-20T09:13:07.959Z,9.30
2019-03-20T09:15:34.480Z,7.07
2019-03-20T09:18:01.158Z,9.10
2019-03-20T09:20:29.756Z,6.43
2019-03-20T09:22:58.010Z,9.80
2019-03-20T09:25:26.358Z,5.20
2019-03-20T09:27:53.330Z,12.37
2019-03-20T09:30:24.309Z,5.87
2019-03-20T09:32:52.232Z,10.40
2019-03-20T09:35:18.939Z,7.03
2019-03-20T09:37:51.915Z,6.63
2019-03-20T09:40:20.055Z,6.47
2019-03-20T09:42:47.327Z,7.07
2019-03-20T09:45:17.939Z,6.13
2019-03-20T09:47:44.688Z,5.20
2019-03-20T09:50:22.703Z,5.63
2019-03-20T09:52:50.170Z,11.90
2019-03-20T09:55:17.142Z,9.70
2019-03-20T09:57:44.106Z,9.90
2019-03-20T10:00:24.174Z,6.27
2019-03-20T10:02:51.190Z,7.80
2019-03-20T10:05:18.236Z,5.90
2019-03-20T10:07:44.742Z,5.47
2019-03-20T10:10:15.038Z,7.20
2019-03-20T10:12:41.738Z,8.00
2019-03-20T10:15:11.876Z,7.13
2019-03-20T10:17:39.493Z,7.37
2019-03-20T10:20:09.555Z,7.83
2019-03-20T10:22:36.286Z,8.67
2019-03-20T10:25:04.855Z,10.70
2019-03-20T10:27:33.027Z,5.63
2019-03-20T10:29:59.502Z,7.00
2019-03-20T10:32:27.379Z,5.53
2019-03-20T10:34:54.326Z,7.43
2019-03-20T10:37:20.831Z,5.13
2019-03-20T10:39:47.594Z,5.43
2019-03-20T10:42:14.381Z,6.83
2019-03-20T10:44:40.898Z,4.77
2019-03-20T10:47:08.799Z,8.87
2019-03-20T10:49:35.701Z,13.03
2019-03-20T10:52:02.843Z,10.57
2019-03-20T10:54:29.516Z,5.70
2019-03-20T10:56:56.175Z,5.43
2019-03-20T10:59:23.744Z,6.47
2019-03-20T11:01:50.666Z,8.53
2019-03-20T11:04:18.489Z,4.73
2019-03-20T11:06:45.012Z,5.67
2019-03-20T11:09:18.211Z,5.70
2019-03-20T11:11:39.937Z,6.03
2019-03-20T11:14:06.707Z,8.07
2019-03-20T11:16:33.266Z,9.70
2019-03-20T11:19:01.713Z,6.37
2019-03-20T11:21:28.087Z,7.37
2019-03-20T11:23:54.595Z,7.57
2019-03-20T11:26:22.395Z,7.00
2019-03-20T11:28:49.277Z,7.13
2019-03-20T11:31:15.822Z,9.27
2019-03-20T11:33:42.354Z,10.30
2019-03-20T11:36:11.013Z,8.90
2019-03-20T11:38:37.372Z,8.23
2019-03-20T11:41:04.494Z,8.33
2019-03-20T11:43:31.130Z,12.50
2019-03-20T11:45:57.506Z,13.03
2019-03-20T11:48:24.192Z,14.67
2019-03-20T11:50:50.818Z,13.37
2019-03-20T11:53:19.108Z,12.33
2019-03-20T11:55:45.762Z,12.00
2019-03-20T11:58:12.402Z,18.03
2019-03-20T12:00:39.224Z,13.30
2019-03-20T12:03:05.876Z,20.93
2019-03-20T12:05:32.563Z,23.73
2019-03-20T12:07:59.232Z,10.77
2019-03-20T12:10:28.116Z,14.83
2019-03-20T12:12:54.740Z,13.10
2019-03-20T12:15:21.447Z,14.57
2019-03-20T12:17:49.095Z,16.73
2019-03-20T12:20:19.979Z,13.17
2019-03-20T12:22:47.761Z,12.27
2019-03-20T12:25:17.103Z,13.27
2019-03-20T12:27:43.731Z,11.90
2019-03-20T12:30:14.454Z,14.83
2019-03-20T12:32:40.988Z,16.20
2019-03-20T12:35:13.707Z,12.87
2019-03-20T12:37:42.346Z,18.53
2019-03-20T12:40:21.016Z,16.63
2019-03-20T12:42:48.773Z,14.00
2019-03-20T12:45:18.698Z,10.53
2019-03-20T12:47:45.401Z,18.27
2019-03-20T12:50:12.452Z,11.17
2019-03-20T12:52:40.052Z,13.03
2019-03-20T12:55:12.682Z,12.67
2019-03-20T12:57:39.231Z,11.27
2019-03-20T13:00:12.201Z,24.73
2019-03-20T13:02:39.651Z,12.33
2019-03-20T13:05:10.805Z,10.07
2019-03-20T13:07:37.335Z,9.30
2019-03-20T13:10:10.585Z,11.23
2019-03-20T13:12:37.187Z,6.87
2019-03-20T13:15:07.537Z,8.63
2019-03-20T13:17:34.126Z,10.93
2019-03-20T13:20:02.487Z,10.83
2019-03-20T13:22:28.885Z,7.50
2019-03-20T13:24:55.323Z,8.97
2019-03-20T13:27:21.959Z,11.73
2019-03-20T13:29:48.536Z,8.13
2019-03-20T13:32:15.300Z,5.80
2019-03-20T13:34:41.932Z,10.07
2019-03-20T13:37:08.738Z,15.23
2019-03-20T13:39:35.352Z,9.70
2019-03-20T13:42:01.928Z,7.90
2019-03-20T13:44:28.498Z,10.37
2019-03-20T13:46:55.034Z,16.47
2019-03-20T13:49:21.583Z,17.93
2019-03-20T13:51:48.161Z,15.77
2019-03-20T13:54:16.130Z,9.90
2019-03-20T13:56:42.663Z,10.83
2019-03-20T13:59:09.285Z,9.10
2019-03-20T14:01:36.178Z,7.10
2019-03-20T14:04:03.185Z,8.73
2019-03-20T14:06:29.967Z,9.80
2019-03-20T14:08:56.623Z,9.10
2019-03-20T14:11:23.299Z,8.63
2019-03-20T14:13:50.442Z,6.93
2019-03-20T14:16:16.985Z,13.77
2019-03-20T14:18:43.513Z,7.07
2019-03-20T14:21:10.388Z,9.50
2019-03-20T14:23:36.897Z,7.77
2019-03-20T14:26:03.647Z,14.87
2019-03-20T14:28:30.192Z,12.80
2019-03-20T14:30:56.806Z,10.10
2019-03-20T14:33:23.491Z,16.00
2019-03-20T14:35:50.117Z,14.57
2019-03-20T14:38:16.647Z,9.93
2019-03-20T14:40:43.675Z,12.53
2019-03-20T14:43:10.727Z,13.43
2019-03-20T14:45:38.550Z,14.30
2019-03-20T14:48:05.105Z,13.70
2019-03-20T14:50:32.450Z,11.87
2019-03-20T14:52:59.110Z,6.47
2019-03-20T14:55:25.911Z,14.60
2019-03-20T14:57:52.682Z,10.32
2019-03-20T15:00:24.997Z,10.77
2019-03-20T15:02:51.629Z,15.43
2019-03-20T15:05:18.260Z,10.80
2019-03-20T15:07:44.891Z,10.83
2019-03-20T15:10:14.522Z,21.17
2019-03-20T15:12:41.197Z,14.93
2019-03-20T15:15:11.468Z,18.53
2019-03-20T15:17:39.546Z,11.17
2019-03-20T15:20:06.606Z,13.10
2019-03-20T15:22:33.144Z,10.90
2019-03-20T15:25:00.111Z,15.07
2019-03-20T15:27:26.573Z,14.57
2019-03-20T15:29:53.481Z,15.80
2019-03-20T15:32:20.331Z,15.93
2019-03-20T15:34:46.925Z,22.43
2019-03-20T15:37:14.104Z,19.67
2019-03-20T15:39:40.709Z,16.17
2019-03-20T15:42:07.187Z,13.07
2019-03-20T15:44:33.743Z,13.80
2019-03-20T15:47:00.655Z,16.10
2019-03-20T15:49:28.250Z,19.17
2019-03-20T15:51:54.738Z,16.47
2019-03-20T15:54:21.413Z,16.13
2019-03-20T15:56:48.256Z,19.67
2019-03-20T15:59:14.938Z,18.13
2019-03-20T16:01:41.464Z,24.53
2019-03-20T16:04:08.324Z,23.83
2019-03-20T16:06:54.796Z,23.77
2019-03-20T16:09:21.420Z,21.20
2019-03-20T16:11:49.066Z,15.10
2019-03-20T16:14:15.633Z,17.63
2019-03-20T16:16:42.177Z,15.80
2019-03-20T16:19:10.111Z,14.60
2019-03-20T16:21:36.840Z,16.70
2019-03-20T16:24:03.781Z,18.37
2019-03-20T16:26:30.296Z,17.07
2019-03-20T16:28:58.673Z,22.80
2019-03-20T16:31:25.313Z,15.80
2019-03-20T16:33:53.495Z,15.63
2019-03-20T16:36:20.185Z,11.80
2019-03-20T16:38:47.072Z,11.90
2019-03-20T16:41:16.918Z,10.90
2019-03-20T16:43:41.984Z,11.47
2019-03-20T16:46:11.068Z,13.77
2019-03-20T16:48:39.407Z,22.33
2019-03-20T16:51:05.960Z,28.10
2019-03-20T16:53:34.570Z,25.13
2019-03-20T16:56:01.333Z,54.00
2019-03-20T16:58:27.758Z,51.50
2019-03-20T17:00:54.579Z,54.07
2019-03-20T17:03:21.347Z,42.33
2019-03-20T17:05:49.283Z,23.03
2019-03-20T17:08:15.905Z,21.77
2019-03-20T17:10:44.146Z,25.93
2019-03-20T17:13:10.815Z,21.33
2019-03-20T17:15:41.933Z,26.63
2019-03-20T17:18:08.613Z,18.43
2019-03-20T17:20:35.243Z,24.73
2019-03-20T17:23:01.881Z,26.33
2019-03-20T17:25:31.896Z,33.07
2019-03-20T17:27:58.511Z,35.17
2019-03-20T17:30:37.543Z,41.53
2019-03-20T17:33:05.890Z,32.10
2019-03-20T17:35:32.524Z,22.57
2019-03-20T17:37:59.110Z,18.63
2019-03-20T17:40:27.077Z,19.53
2019-03-20T17:42:53.738Z,20.90
2019-03-20T17:45:22.366Z,19.50
2019-03-20T17:47:49.380Z,27.50
2019-03-20T17:50:21.461Z,21.07
2019-03-20T17:52:48.058Z,24.27
2019-03-20T17:55:14.704Z,26.00
2019-03-20T17:57:41.356Z,23.30
2019-03-20T18:00:12.735Z,19.97
2019-03-20T18:02:39.367Z,23.23
2019-03-20T18:05:07.700Z,23.73
2019-03-20T18:07:34.269Z,27.77
2019-03-20T18:10:01.890Z,28.73
2019-03-20T18:12:28.613Z,29.37
2019-03-20T18:14:55.292Z,31.60
2019-03-20T18:17:21.918Z,28.20
2019-03-20T18:19:48.328Z,24.03
2019-03-20T18:22:14.939Z,24.53
2019-03-20T18:24:41.626Z,20.27
2019-03-20T18:27:08.704Z,29.23
2019-03-20T18:29:35.274Z,40.13
2019-03-20T18:32:01.974Z,35.67
2019-03-20T18:34:28.837Z,28.33
2019-03-20T18:36:55.636Z,25.43
2019-03-20T18:39:22.106Z,22.20
2019-03-20T18:41:57.399Z,19.10
2019-03-20T18:44:17.659Z,26.13
2019-03-20T18:46:44.267Z,18.13
2019-03-20T18:49:10.744Z,17.60
2019-03-20T18:51:37.195Z,16.97
2019-03-20T18:54:03.991Z,15.47
2019-03-20T18:56:31.436Z,16.80
2019-03-20T18:58:57.992Z,20.70
2019-03-20T19:01:24.611Z,16.97
2019-03-20T19:03:51.281Z,16.37
2019-03-20T19:06:21.885Z,12.73
2019-03-20T19:08:48.840Z,15.57
2019-03-20T19:11:15.493Z,11.90
2019-03-20T19:13:42.416Z,17.87
2019-03-20T19:16:08.922Z,17.60
2019-03-20T19:18:36.588Z,20.00
2019-03-20T19:21:05.168Z,23.90
2019-03-20T19:23:31.958Z,23.17
2019-03-20T19:25:58.680Z,20.77
2019-03-20T19:28:26.260Z,24.53
2019-03-20T19:30:52.889Z,21.63
2019-03-20T19:33:19.692Z,19.53
2019-03-20T19:35:47.568Z,23.77
2019-03-20T19:38:14.054Z,80.30
2019-03-20T19:40:41.108Z,24.47
2019-03-20T19:43:08.356Z,25.87
2019-03-20T19:45:34.882Z,20.67
2019-03-20T19:48:01.965Z,22.33
2019-03-20T19:50:28.919Z,28.83
2019-03-20T19:52:55.426Z,27.47
2019-03-20T19:55:22.023Z,23.73
2019-03-20T19:57:48.626Z,23.87
2019-03-20T20:00:21.763Z,19.67
2019-03-20T20:02:48.641Z,23.07
2019-03-20T20:05:16.275Z,20.63
2019-03-20T20:07:44.307Z,25.50
2019-03-20T20:10:20.247Z,25.63
2019-03-20T20:12:47.280Z,20.50
2019-03-20T20:15:26.646Z,19.67
2019-03-20T20:17:53.484Z,23.57
2019-03-20T20:20:22.338Z,19.40
2019-03-20T20:22:48.963Z,23.57
2019-03-20T20:25:15.656Z,26.50
2019-03-20T20:27:42.585Z,28.00
2019-03-20T20:30:20.975Z,31.80
2019-03-20T20:32:47.450Z,23.67
2019-03-20T20:35:16.217Z,20.93
2019-03-20T20:37:45.055Z,23.07
2019-03-20T20:40:21.585Z,25.73
2019-03-20T20:42:48.484Z,27.07
2019-03-20T20:45:15.173Z,23.53
2019-03-20T20:47:41.999Z,24.37
2019-03-20T20:50:11.268Z,21.70
2019-03-20T20:52:38.382Z,29.43
2019-03-20T20:55:08.628Z,29.50
2019-03-20T20:57:55.348Z,26.57
2019-03-20T21:00:23.423Z,30.53
2019-03-20T21:02:50.840Z,27.10
2019-03-20T21:05:17.890Z,24.37
2019-03-20T21:07:45.466Z,37.27
2019-03-20T21:10:14.786Z,24.30
2019-03-20T21:12:42.754Z,24.03
2019-03-20T21:15:33.360Z,27.57
2019-03-20T21:18:15.499Z,30.73
2019-03-20T21:20:47.392Z,30.23
2019-03-20T21:23:37.251Z,29.33
2019-03-20T21:26:06.776Z,26.13
2019-03-20T21:29:10.379Z,25.10
2019-03-20T21:31:40.027Z,25.07
2019-03-20T21:34:26.965Z,25.20
2019-03-20T21:37:06.145Z,21.80
2019-03-20T21:39:32.975Z,29.43
2019-03-20T21:42:30.653Z,28.17
2019-03-20T21:45:24.909Z,133.43
2019-03-20T21:47:51.582Z,26.77
2019-03-20T21:50:27.875Z,29.20
2019-03-20T21:52:54.635Z,28.00
2019-03-20T21:55:25.042Z,28.97
2019-03-20T21:58:04.262Z,30.37
2019-03-20T22:00:52.824Z,37.50
2019-03-20T22:03:19.456Z,30.57
2019-03-20T22:06:07.856Z,26.07
2019-03-20T22:08:34.483Z,30.87
2019-03-20T22:11:41.013Z,33.37
2019-03-20T22:14:15.653Z,31.77
2019-03-20T22:17:05.863Z,36.63
2019-03-20T22:19:38.722Z,44.00
2019-03-20T22:22:30.371Z,39.73
2019-03-20T22:25:15.420Z,37.77
2019-03-20T22:27:51.413Z,28.13
2019-03-20T22:30:18.988Z,30.60
2019-03-20T22:33:05.954Z,31.93
2019-03-20T22:35:41.067Z,33.17
2019-03-20T22:38:15.390Z,33.30
2019-03-20T22:41:08.228Z,29.13
2019-03-20T22:43:41.120Z,27.13
2019-03-20T22:46:43.592Z,33.07
2019-03-20T22:49:19.948Z,35.13
2019-03-20T22:51:55.888Z,29.00
2019-03-20T22:54:58.170Z,30.07
2019-03-20T22:57:37.617Z,30.90
2019-03-20T23:00:09.765Z,33.60
2019-03-20T23:02:51.917Z,32.43
2019-03-20T23:05:18.850Z,33.97
2019-03-20T23:07:45.403Z,40.90
2019-03-20T23:10:16.649Z,34.80
2019-03-20T23:12:43.127Z,29.13
2019-03-20T23:15:13.380Z,31.33
2019-03-20T23:17:39.925Z,30.20
2019-03-20T23:20:10.174Z,32.60
2019-03-20T23:22:37.009Z,32.67
2019-03-20T23:25:07.083Z,29.33
2019-03-20T23:27:33.527Z,28.40
2019-03-20T23:30:00.044Z,26.10
2019-03-20T23:32:26.896Z,32.90
2019-03-20T23:34:53.374Z,38.23
2019-03-20T23:37:20.004Z,31.47
2019-03-20T23:39:46.940Z,31.13
2019-03-20T23:42:13.462Z,31.97
2019-03-20T23:44:40.057Z,32.23
2019-03-20T23:47:06.596Z,32.40
2019-03-20T23:49:33.116Z,26.53
2019-03-20T23:52:00.138Z,32.60
2019-03-20T23:54:32.877Z,29.27
2019-03-20T23:57:00.462Z,30.70
2019-03-20T23:59:27.096Z,28.40
